Time;durP1;ratioP1;P1;durP2;ratioP2;P2;SDS_P1;SDS_P2;PMS_P1;PMS_P2;Temp;Humidity;BMP_temperature;BMP_pressure;BME280_temperature;BME280_humidity;BME280_pressure;Samples;Min_cycle;Max_cycle;Signal;HPM_P1;HPM_P2
2022/04/25 00:01:46;;;;;;;6.42;4.45;;;;;;;23.59;52.82;97283.14;1791676;80;25418;-93
2022/04/25 00:04:13;;;;;;;6.70;4.55;;;;;;;23.59;52.81;97281.14;1791621;80;27384;-93
2022/04/25 00:06:39;;;;;;;7.25;4.58;;;;;;;23.58;52.79;97278.78;1791665;80;25596;-93
2022/04/25 00:09:05;;;;;;;6.65;4.45;;;;;;;23.58;52.78;97276.78;1791765;80;25442;-92
2022/04/25 00:11:31;;;;;;;6.75;4.20;;;;;;;23.57;52.78;97280.78;1791713;80;25741;-92
2022/04/25 00:13:56;;;;;;;5.85;4.10;;;;;;;23.57;52.79;97280.78;1791775;80;25472;-92
2022/04/25 00:16:23;;;;;;;6.25;4.53;;;;;;;23.55;52.79;97281.84;1791627;80;27396;-92
2022/04/25 00:18:50;;;;;;;6.75;4.45;;;;;;;23.55;52.78;97288.21;1791282;80;25653;-92
2022/04/25 00:21:16;;;;;;;8.00;4.42;;;;;;;23.55;52.78;97288.21;1791669;80;25629;-91
2022/04/25 00:23:42;;;;;;;6.45;4.62;;;;;;;23.56;52.76;97293.20;1791644;80;25531;-92
2022/04/25 00:26:09;;;;;;;6.50;4.28;;;;;;;23.55;52.79;97295.83;1791700;80;25658;-93
2022/04/25 00:28:35;;;;;;;6.50;4.67;;;;;;;23.55;52.76;97287.44;1791431;80;27460;-93
2022/04/25 00:31:01;;;;;;;6.97;4.72;;;;;;;23.51;52.80;97276.94;1791474;80;25659;-92
2022/04/25 00:33:27;;;;;;;7.12;4.80;;;;;;;23.50;52.82;97276.77;1791764;80;25675;-93
2022/04/25 00:35:53;;;;;;;5.70;4.25;;;;;;;23.48;52.79;97280.00;1791516;80;25879;-92
2022/04/25 00:38:19;;;;;;;6.12;4.47;;;;;;;23.48;52.81;97282.80;1791676;80;25664;-92
2022/04/25 00:40:45;;;;;;;7.05;4.87;;;;;;;23.47;52.85;97286.82;1791652;80;27415;-92
2022/04/25 00:43:11;;;;;;;6.60;4.60;;;;;;;23.46;52.85;97280.27;1791622;80;25809;-92
2022/04/25 00:45:37;;;;;;;7.10;4.65;;;;;;;23.45;52.84;97280.87;1791617;80;25686;-91
2022/04/25 00:48:04;;;;;;;6.10;4.65;;;;;;;23.47;52.83;97279.03;1791696;80;25648;-92
2022/04/25 00:50:31;;;;;;;6.22;4.40;;;;;;;23.45;52.81;97273.11;1791595;80;25720;-92
2022/04/25 00:52:59;;;;;;;6.45;4.58;;;;;;;23.42;52.84;97278.34;1791291;80;27690;-92
2022/04/25 00:55:25;;;;;;;6.50;4.55;;;;;;;23.43;52.83;97281.94;1779977;80;25665;-91
2022/04/25 00:57:54;;;;;;;6.28;4.75;;;;;;;23.45;52.85;97280.10;1777953;80;25783;-92
2022/04/25 01:00:20;;;;;;;5.85;4.33;;;;;;;23.42;52.82;97278.94;1727287;83;25919;-93
2022/04/25 01:02:46;;;;;;;6.33;4.35;;;;;;;23.40;52.84;97281.41;1777747;80;25692;-92
2022/04/25 01:05:12;;;;;;;7.47;4.60;;;;;;;23.37;52.91;97284.44;1777908;80;27426;-92
2022/04/25 01:07:39;;;;;;;7.15;4.70;;;;;;;23.35;52.91;97282.67;1777948;80;25444;-92
2022/04/25 01:10:08;;;;;;;6.65;4.12;;;;;;;23.35;52.92;97282.67;1777773;80;25439;-92
2022/04/25 01:12:34;;;;;;;6.25;4.45;;;;;;;23.35;52.89;97281.28;1777845;80;25755;-92
2022/04/25 01:15:04;;;;;;;6.42;4.42;;;;;;;23.34;52.88;97280.31;1777824;80;25702;-93
2022/04/25 01:17:31;;;;;;;6.45;4.55;;;;;;;23.31;52.92;97277.77;1745947;82;27292;-92
2022/04/25 01:19:57;;;;;;;6.97;4.65;;;;;;;23.30;52.91;97282.58;1777719;80;25852;-92
2022/04/25 01:22:38;;;;;;;6.97;4.58;;;;;;;23.31;52.94;97278.55;1777810;80;25660;-92
2022/04/25 01:27:49;;;;;;;6.37;4.30;;;;;;;23.30;52.89;97276.99;1777444;80;25432;-93
2022/04/25 01:30:15;;;;;;;6.70;4.70;;;;;;;23.30;52.91;97281.78;1777820;80;28213;-92
2022/04/25 01:32:41;;;;;;;6.47;4.65;;;;;;;23.29;52.92;97283.78;1777565;80;25761;-92
2022/04/25 01:35:08;;;;;;;6.28;4.40;;;;;;;23.26;52.95;97281.85;1777944;80;25604;-92
2022/04/25 01:37:34;;;;;;;6.20;4.10;;;;;;;23.26;52.95;97282.48;1777657;80;26569;-91
2022/04/25 01:40:00;;;;;;;6.75;4.70;;;;;;;23.24;52.97;97273.73;1777826;80;25464;-92
2022/04/25 01:42:26;;;;;;;6.17;4.50;;;;;;;23.24;52.99;97275.93;1777634;80;27445;-92
2022/04/25 01:44:52;;;;;;;6.53;4.60;;;;;;;23.24;52.96;97272.34;1777678;80;25488;-93
2022/04/25 01:47:19;;;;;;;6.53;4.60;;;;;;;23.25;52.95;97268.31;1777898;80;25531;-92
2022/04/25 01:49:45;;;;;;;5.65;4.28;;;;;;;23.25;52.96;97269.11;1777881;80;26447;-91
2022/04/25 01:52:26;;;;;;;6.17;4.58;;;;;;;23.24;52.95;97271.73;1777736;80;25654;-92
2022/04/25 01:54:52;;;;;;;;;;;;;;;23.24;52.95;97273.14;1777138;80;27464;-91
2022/04/25 01:57:17;;;;;;;6.15;4.20;;;;;;;23.24;52.94;97268.95;1772502;80;25679;-93
2022/04/25 01:59:45;;;;;;;6.40;4.40;;;;;;;23.22;52.94;97269.98;1772502;81;25801;-92
2022/04/25 02:02:13;;;;;;;6.22;4.55;;;;;;;23.23;52.92;97272.17;1772262;81;26662;-91
2022/04/25 02:04:40;;;;;;;6.17;4.45;;;;;;;23.21;52.95;97274.61;1772526;80;25635;-92
2022/04/25 02:07:09;;;;;;;6.78;4.50;;;;;;;23.19;52.93;97268.84;1791459;80;27423;-91
2022/04/25 02:09:39;;;;;;;5.67;4.00;;;;;;;23.19;52.95;97273.04;1791370;80;25498;-91
2022/04/25 02:12:07;;;;;;;6.55;4.28;;;;;;;23.18;52.92;97270.67;1791704;80;25672;-91
2022/04/25 02:14:33;;;;;;;6.37;4.58;;;;;;;23.17;52.96;97270.52;1791523;80;25847;-92
2022/04/25 02:16:59;;;;;;;6.95;4.30;;;;;;;23.13;52.96;97270.58;1791624;80;25688;-92
2022/04/25 02:19:27;;;;;;;5.95;4.25;;;;;;;23.13;52.96;97267.78;1791631;80;27381;-92
2022/04/25 02:21:55;;;;;;;6.53;4.60;;;;;;;23.11;53.03;97273.64;1791638;80;25669;-90
2022/04/25 02:24:21;;;;;;;6.08;4.40;;;;;;;23.09;53.03;97271.87;1791492;80;25430;-92
2022/04/25 02:26:50;;;;;;;5.33;3.95;;;;;;;23.09;53.07;97275.47;1791610;80;25778;-91
2022/04/25 02:29:16;;;;;;;6.25;4.28;;;;;;;23.10;53.04;97277.03;1791565;80;25612;-92
2022/04/25 02:31:43;;;;;;;5.85;4.50;;;;;;;23.10;53.02;97284.02;1791281;80;28337;-92
2022/04/25 02:34:09;;;;;;;6.75;4.25;;;;;;;23.11;53.04;97285.58;1791426;80;25698;-92
2022/04/25 02:36:35;;;;;;;5.83;4.00;;;;;;;23.11;53.04;97283.42;1791562;80;25687;-91
2022/04/25 02:39:01;;;;;;;6.08;4.42;;;;;;;23.09;53.00;97281.05;1791290;80;25826;-92
2022/04/25 02:41:27;;;;;;;6.00;4.10;;;;;;;23.07;53.04;97279.30;1791666;80;25407;-91
2022/04/25 02:43:53;;;;;;;6.90;4.37;;;;;;;23.08;53.01;97285.05;1791619;80;28174;-92
2022/04/25 02:46:19;;;;;;;5.28;4.00;;;;;;;23.06;53.02;97284.72;1791535;80;25577;-91
2022/04/25 02:48:47;;;;;;;5.83;4.20;;;;;;;23.06;53.06;97287.51;1791647;80;25734;-91
2022/04/25 02:51:15;;;;;;;9.28;4.60;;;;;;;23.03;53.08;97289.77;1791422;80;25885;-92
2022/04/25 02:53:42;;;;;;;5.53;4.10;;;;;;;23.04;53.00;97285.75;1791506;80;25408;-92
2022/04/25 02:56:10;;;;;;;6.35;4.28;;;;;;;23.05;52.99;97291.50;1779789;79;27541;-92
2022/04/25 02:58:38;;;;;;;6.53;4.42;;;;;;;23.03;53.00;97293.95;1777656;80;25910;-92
2022/04/25 03:01:06;;;;;;;5.78;4.10;;;;;;;23.03;53.04;97299.55;1777797;80;25593;-92
2022/04/25 03:03:35;;;;;;;6.05;4.22;;;;;;;23.03;53.02;97303.11;1777802;80;25745;-93
2022/04/25 03:06:05;;;;;;;5.65;4.17;;;;;;;23.04;53.00;97303.91;1777736;80;25602;-92
2022/04/25 03:08:34;;;;;;;6.72;4.40;;;;;;;23.04;52.96;97306.09;1778035;80;27424;-92
2022/04/25 03:11:04;;;;;;;5.92;3.90;;;;;;;23.04;52.95;97301.11;1777567;80;25574;-92
2022/04/25 03:13:30;;;;;;;5.47;4.00;;;;;;;23.01;52.97;97302.77;1778065;80;25407;-93
2022/04/25 03:15:57;;;;;;;6.33;4.50;;;;;;;22.99;52.97;97306.59;1777794;80;25690;-92
2022/04/25 03:18:23;;;;;;;6.97;4.58;;;;;;;23.00;52.99;97300.41;1777935;80;25645;-92
2022/04/25 03:20:51;;;;;;;6.20;4.33;;;;;;;23.00;52.98;97306.77;1777878;80;27453;-92
2022/04/25 03:23:20;;;;;;;7.45;4.17;;;;;;;23.00;53.00;97305.99;1777708;80;25453;-92
2022/04/25 03:25:47;;;;;;;5.42;3.92;;;;;;;22.99;52.93;97312.18;1777900;80;25416;-91
2022/04/25 03:28:13;;;;;;;5.95;4.28;;;;;;;23.00;52.95;97315.14;1777982;80;26081;-92
2022/04/25 03:30:41;;;;;;;5.72;4.10;;;;;;;23.00;52.92;97323.52;1777833;80;25681;-92
2022/04/25 03:33:11;;;;;;;5.62;4.17;;;;;;;22.99;52.92;97316.38;1777401;80;27581;-92
2022/04/25 03:35:36;;;;;;;6.35;4.30;;;;;;;22.99;52.90;97324.75;1728472;83;25807;-92
2022/04/25 03:38:03;;;;;;;5.65;4.30;;;;;;;22.99;52.90;97319.16;1777536;80;25693;-92
2022/04/25 03:40:29;;;;;;;6.30;4.08;;;;;;;22.99;52.90;97321.16;1777782;80;25752;-90
2022/04/25 03:42:57;;;;;;;5.92;4.33;;;;;;;22.98;52.91;97321.79;1778014;80;25588;-92
2022/04/25 03:45:32;;;;;;;5.50;3.70;;;;;;;22.98;52.91;97321.79;1777538;80;27496;-92
2022/04/25 03:48:02;;;;;;;5.92;4.33;;;;;;;22.98;52.86;97317.59;1777233;80;25651;-92
2022/04/25 03:50:33;;;;;;;5.80;4.45;;;;;;;22.98;52.87;97319.59;1777654;80;25740;-92
2022/04/25 03:53:09;;;;;;;5.47;4.05;;;;;;;22.96;52.91;97317.83;1777477;80;26754;-92
2022/04/25 03:58:38;;;;;;;6.05;3.62;;;;;;;22.94;52.88;97323.25;1777549;80;27457;-90
2022/04/25 04:01:03;;;;;;;5.45;4.10;;;;;;;22.92;52.91;97324.30;1777372;80;25831;-92
2022/04/25 04:03:30;;;;;;;5.60;3.80;;;;;;;22.90;52.93;97319.75;1777889;80;25780;-92
2022/04/25 04:05:56;;;;;;;7.33;4.50;;;;;;;22.89;52.97;97322.38;1777420;80;26598;-91
2022/04/25 04:08:23;;;;;;;5.83;4.17;;;;;;;22.90;52.93;97325.34;1777919;80;25401;-92
2022/04/25 04:10:49;;;;;;;6.80;4.28;;;;;;;22.90;52.93;97331.52;1777478;80;27366;-92
2022/04/25 04:13:15;;;;;;;6.20;4.33;;;;;;;22.89;52.92;97332.75;1777645;80;25976;-92
2022/04/25 04:15:41;;;;;;;6.30;4.40;;;;;;;22.88;52.98;97329.16;1777830;80;25685;-92
2022/04/25 04:18:07;;;;;;;6.58;4.67;;;;;;;22.89;52.93;97329.95;1777846;80;26563;-91
2022/04/25 04:20:33;;;;;;;6.10;4.30;;;;;;;22.89;52.93;97326.56;1777804;80;25667;-92
2022/04/25 04:23:00;;;;;;;6.60;4.45;;;;;;;22.88;52.93;97333.34;1777844;80;27333;-91
2022/04/25 04:25:26;;;;;;;5.80;4.30;;;;;;;22.86;52.99;97328.81;1777642;80;25629;-92
2022/04/25 04:27:52;;;;;;;5.87;4.40;;;;;;;22.87;52.96;97331.78;1777849;80;25582;-91
2022/04/25 04:30:18;;;;;;;5.60;4.25;;;;;;;22.85;52.99;97338.39;1777846;80;26442;-91
2022/04/25 04:32:45;;;;;;;5.47;4.33;;;;;;;22.87;52.98;97345.75;1777590;80;25424;-92
2022/04/25 04:35:15;;;;;;;6.12;4.33;;;;;;;22.87;52.98;97344.34;1777769;80;27332;-92
2022/04/25 04:37:42;;;;;;;5.92;4.33;;;;;;;22.88;52.97;97350.73;1777644;80;25698;-92
2022/04/25 04:40:28;;;;;;;6.28;4.50;;;;;;;22.86;52.99;97352.56;1777881;80;25724;-93
2022/04/25 04:42:55;;;;;;;5.45;4.12;;;;;;;22.86;52.99;97355.95;1777482;80;26538;-90
2022/04/25 04:45:21;;;;;;;6.65;4.75;;;;;;;22.85;52.99;97350.96;1777798;80;25649;-90
2022/04/25 04:47:47;;;;;;;6.42;4.62;;;;;;;22.86;53.00;97355.95;1777870;80;28173;-93
2022/04/25 04:50:15;;;;;;;5.53;4.20;;;;;;;22.87;52.95;97355.52;1777782;80;25431;-92
2022/04/25 04:52:56;;;;;;;6.37;4.65;;;;;;;22.86;52.98;97349.77;1777708;80;25472;-92
2022/04/25 04:55:22;;;;;;;5.67;4.28;;;;;;;22.87;52.98;97351.93;1777381;80;25706;-91
2022/04/25 04:57:48;;;;;;;5.75;4.10;;;;;;;22.86;53.00;97349.77;1778115;80;25635;-90
2022/04/25 05:00:17;;;;;;;6.72;4.47;;;;;;;22.87;53.02;97357.52;1777760;80;26899;-91
2022/04/25 05:02:45;;;;;;;6.10;4.62;;;;;;;22.87;53.01;97361.11;1777677;80;25692;-91
2022/04/25 05:05:12;;;;;;;6.60;4.62;;;;;;;22.88;53.01;97361.91;1777451;80;25706;-91
2022/04/25 05:07:39;;;;;;;7.42;4.33;;;;;;;22.87;53.01;97363.10;1777689;80;26489;-92
2022/04/25 05:10:07;;;;;;;7.35;4.95;;;;;;;22.86;53.03;97365.13;1777624;80;25696;-91
2022/04/25 05:12:52;;;;;;;7.42;4.72;;;;;;;22.84;53.04;97365.36;1777730;80;27377;-91
2022/04/25 05:15:19;;;;;;;6.87;4.70;;;;;;;22.81;53.10;97359.43;1746084;82;25485;-91
2022/04/25 05:17:48;;;;;;;5.87;4.58;;;;;;;22.82;53.12;97360.20;1777830;80;25670;-91
2022/04/25 05:20:15;;;;;;;6.12;4.30;;;;;;;22.82;53.11;97365.78;1777412;80;25744;-92
2022/04/25 05:22:44;;;;;;;6.47;4.50;;;;;;;22.80;53.13;97363.42;1777686;80;25661;-89
2022/04/25 05:25:18;;;;;;;7.12;4.78;;;;;;;22.80;53.14;97366.84;1777377;80;27426;-91
2022/04/25 05:27:46;;;;;;;5.75;4.65;;;;;;;22.81;53.14;97368.41;1776533;80;25653;-92
2022/04/25 05:30:14;;;;;;;5.80;4.42;;;;;;;22.81;53.17;97367.81;1777749;80;25685;-92
2022/04/25 05:32:51;;;;;;;7.10;4.75;;;;;;;22.81;53.20;97371.20;1774726;80;25910;-87
2022/04/25 05:35:24;;;;;;;5.67;4.40;;;;;;;22.81;53.19;97371.20;1777034;80;25666;-91
2022/04/25 05:37:51;;;;;;;7.30;4.67;;;;;;;22.82;53.18;97372.77;1792439;79;27501;-90
2022/04/25 05:40:19;;;;;;;5.95;4.40;;;;;;;22.84;53.17;97377.33;1802421;79;25671;-91
2022/04/25 05:42:47;;;;;;;6.08;4.60;;;;;;;22.85;53.19;97376.73;1808461;79;25783;-92
2022/04/25 05:45:16;;;;;;;6.53;4.67;;;;;;;22.84;53.19;97371.73;1808492;79;25636;-90
2022/04/25 05:47:45;;;;;;;6.12;4.30;;;;;;;22.85;53.19;97376.73;1808864;79;25784;-91
2022/04/25 05:52:59;;;;;;;6.30;4.50;;;;;;;22.85;53.22;97382.31;1808002;79;25721;-90
2022/04/25 05:55:30;;;;;;;6.62;4.40;;;;;;;22.85;53.23;97386.50;1804506;78;25689;-91
2022/04/25 05:57:58;;;;;;;5.75;4.10;;;;;;;22.85;53.26;97389.30;1814669;79;25821;-92
2022/04/25 06:00:26;;;;;;;6.30;4.60;;;;;;;22.85;53.28;97390.69;1815226;79;25586;-92
2022/04/25 06:02:52;;;;;;;6.58;4.40;;;;;;;22.85;53.23;97392.86;1809901;79;27418;-91
2022/04/25 06:05:19;;;;;;;6.50;4.87;;;;;;;22.86;53.25;97397.25;1802599;79;25871;-90
2022/04/25 06:07:47;;;;;;;6.10;4.25;;;;;;;22.85;53.25;97398.44;1812548;79;25231;-90
2022/04/25 06:10:17;;;;;;;7.45;4.35;;;;;;;22.85;53.30;97403.26;1815154;79;25731;-90
2022/04/25 06:12:52;;;;;;;6.83;4.20;;;;;;;22.86;53.32;97401.44;1815319;79;25656;-90
2022/04/25 06:15:21;;;;;;;5.85;4.15;;;;;;;22.85;53.32;97402.63;1814748;79;27475;-90
2022/04/25 06:17:48;;;;;;;6.73;4.97;;;;;;;22.85;53.33;97408.84;1815307;79;25785;-91
2022/04/25 06:20:14;;;;;;;6.25;4.30;;;;;;;22.83;53.38;97405.08;1814233;79;25614;-89
2022/04/25 06:22:54;;;;;;;5.20;3.98;;;;;;;22.84;53.41;97405.84;1814938;79;26533;-90
2022/04/25 06:25:21;;;;;;;7.67;4.63;;;;;;;22.83;53.45;97404.28;1815540;79;25780;-91
2022/04/25 06:27:47;;;;;;;6.72;4.78;;;;;;;22.77;53.47;97402.60;1811637;79;28236;-91
2022/04/25 06:30:14;;;;;;;6.47;4.30;;;;;;;22.73;53.33;97405.45;1815109;79;25478;-91
2022/04/25 06:32:40;;;;;;;6.20;4.35;;;;;;;22.73;53.39;97408.24;1815041;79;25411;-91
2022/04/25 06:35:08;;;;;;;6.53;4.28;;;;;;;22.72;53.43;97403.88;1815066;79;26341;-92
2022/04/25 06:37:34;;;;;;;5.87;4.12;;;;;;;22.73;53.49;97401.86;1815130;79;25637;-90
2022/04/25 06:40:01;;;;;;;6.53;4.50;;;;;;;22.71;53.51;97399.49;1815102;79;27405;-91
2022/04/25 06:42:27;;;;;;;6.75;4.42;;;;;;;22.71;53.47;97395.94;1815020;79;25798;-91
2022/04/25 06:44:54;;;;;;;8.98;4.47;;;;;;;22.70;53.49;97395.13;1815013;79;25638;-92
2022/04/25 06:47:20;;;;;;;7.22;4.70;;;;;;;22.73;53.60;97399.06;1815027;79;25675;-92
2022/04/25 06:49:46;;;;;;;7.12;4.80;;;;;;;22.72;53.67;97400.29;1815155;79;25651;-92
2022/04/25 06:52:13;;;;;;;9.65;4.95;;;;;;;22.73;53.69;97397.67;1815107;79;28020;-91
2022/04/25 06:54:40;;;;;;;7.58;4.87;;;;;;;22.72;53.74;97405.28;1814672;79;25748;-92
2022/04/25 06:57:06;;;;;;;7.70;4.37;;;;;;;22.73;53.78;97404.66;1810697;78;25617;-91
2022/04/25 06:59:32;;;;;;;8.33;4.85;;;;;;;22.76;53.74;97409.38;1808422;79;26360;-91
2022/04/25 07:02:00;;;;;;;10.03;4.45;;;;;;;22.78;53.79;97408.36;1808425;79;25656;-91
2022/04/25 07:04:26;;;;;;;7.97;5.17;;;;;;;22.77;53.97;97414.55;1808252;79;27422;-92
2022/04/25 07:06:53;;;;;;;9.75;5.10;;;;;;;22.78;54.11;97413.34;1808364;79;25423;-92
2022/04/25 07:09:19;;;;;;;6.33;4.60;;;;;;;22.78;54.28;97416.14;1808533;79;25604;-92
2022/04/25 07:11:47;;;;;;;7.62;4.70;;;;;;;22.78;54.26;97416.73;1808600;79;25747;-91
2022/04/25 07:14:19;;;;;;;6.80;5.00;;;;;;;22.79;54.17;97419.10;1808556;79;25744;-91
2022/04/25 07:16:54;;;;;;;9.38;5.12;;;;;;;22.79;54.30;97416.31;1808468;79;28018;-92
2022/04/25 07:19:21;;;;;;;10.15;5.50;;;;;;;22.79;54.34;97419.70;1808068;79;25628;-90
2022/04/25 07:30:04;;;;;;;8.98;5.60;;;;;;;22.81;54.54;97422.27;1808177;79;26508;-89
2022/04/25 07:32:30;;;;;;;8.48;5.20;;;;;;;22.86;54.45;97425.17;1808446;79;25474;-90
2022/04/25 07:34:57;;;;;;;10.72;5.08;;;;;;;22.87;54.32;97429.53;1808444;79;25427;-91
2022/04/25 07:37:24;;;;;;;9.20;5.33;;;;;;;22.87;54.46;97435.13;1808534;79;26442;-91
2022/04/25 07:39:51;;;;;;;10.15;5.80;;;;;;;22.86;54.58;97437.74;1808209;79;25624;-90
2022/04/25 07:42:18;;;;;;;7.97;5.28;;;;;;;22.85;54.54;97436.14;1808099;79;27635;-91
2022/04/25 07:44:46;;;;;;;10.88;5.35;;;;;;;22.84;54.57;97433.78;1808356;79;25458;-90
2022/04/25 07:47:14;;;;;;;10.25;5.05;;;;;;;22.84;54.53;97437.37;1808260;79;25600;-91
2022/04/25 07:49:40;;;;;;;8.58;5.28;;;;;;;22.85;54.41;97434.75;1808564;79;26576;-91
2022/04/25 07:52:08;;;;;;;8.68;5.17;;;;;;;22.86;54.39;97436.94;1808736;79;25648;-92
2022/04/25 07:54:34;;;;;;;6.70;4.90;;;;;;;22.87;54.47;97439.91;1808583;79;27370;-91
2022/04/25 07:57:03;;;;;;;7.40;5.03;;;;;;;22.86;54.44;97442.53;1811555;78;25713;-91
2022/04/25 07:59:30;;;;;;;8.25;5.08;;;;;;;22.86;54.34;97440.53;1815168;79;25453;-90
2022/04/25 08:01:56;;;;;;;10.35;5.30;;;;;;;22.87;54.33;97442.10;1815267;79;26350;-91
2022/04/25 08:04:23;;;;;;;9.30;5.10;;;;;;;22.87;54.30;97447.69;1815232;79;25585;-91
2022/04/25 08:06:49;;;;;;;8.55;5.53;;;;;;;22.87;54.24;97446.29;1815363;79;27516;-90
2022/04/25 08:09:16;;;;;;;6.58;4.50;;;;;;;22.89;54.20;97450.86;1815144;79;25757;-89
2022/04/25 08:11:43;;;;;;;8.83;5.00;;;;;;;22.89;54.02;97448.66;1814767;79;25474;-91
2022/04/25 08:19:39;;;;;;;6.90;4.62;;;;;;;22.97;53.63;97454.91;1814837;79;25668;-90
2022/04/25 08:22:07;;;;;;;8.43;4.75;;;;;;;22.98;53.59;97455.08;1814740;79;25725;-90
2022/04/25 08:24:36;;;;;;;8.10;5.33;;;;;;;23.00;53.47;97459.01;1815120;79;25442;-89
2022/04/25 08:27:05;;;;;;;10.32;4.97;;;;;;;23.01;53.33;97463.40;1814901;79;25592;-89
2022/04/25 08:29:35;;;;;;;7.40;4.70;;;;;;;23.02;53.27;97465.56;1814811;79;25716;-91
2022/04/25 08:32:02;;;;;;;7.60;4.83;;;;;;;23.05;53.18;97472.49;1815327;79;27433;-91
2022/04/25 08:34:28;;;;;;;8.50;5.20;;;;;;;23.05;53.14;97474.48;1815252;79;25419;-91
2022/04/25 08:36:54;;;;;;;9.15;5.30;;;;;;;23.03;53.24;97471.35;1815257;79;25729;-91
2022/04/25 08:39:21;;;;;;;8.00;4.53;;;;;;;23.01;53.21;97473.77;1813986;78;25712;-90
2022/04/25 08:41:51;;;;;;;9.78;4.83;;;;;;;22.99;53.30;97472.80;1818058;78;25882;-88
2022/04/25 08:44:18;;;;;;;8.18;4.72;;;;;;;22.99;53.30;97473.41;1817433;78;28125;-93
2022/04/25 08:46:49;;;;;;;7.75;4.92;;;;;;;22.94;53.22;97479.67;1807038;78;26011;-92
2022/04/25 08:49:20;;;;;;;7.65;4.75;;;;;;;22.96;53.19;97479.25;1798468;79;25773;-93
2022/04/25 08:51:48;;;;;;;7.85;4.85;;;;;;;22.96;53.24;97473.66;1749855;79;376848;-92
2022/04/25 08:54:15;;;;;;;9.28;5.33;;;;;;;22.97;53.15;97479.42;1630348;87;25760;-93
2022/04/25 08:56:42;;;;;;;8.45;4.40;;;;;;;22.98;52.98;97479.62;1634788;84;27461;-91
2022/04/25 08:59:10;;;;;;;8.10;4.55;;;;;;;22.98;52.98;97480.22;1654679;85;25738;-92
2022/04/25 09:01:40;;;;;;;7.20;4.60;;;;;;;23.00;52.83;97481.98;1668257;84;25837;-88
2022/04/25 09:04:06;;;;;;;7.83;4.80;;;;;;;23.00;52.88;97484.78;1643661;84;26404;-92
2022/04/25 09:06:32;;;;;;;6.28;4.60;;;;;;;22.98;52.86;97490.80;1633735;87;25688;-90
2022/04/25 09:08:59;;;;;;;6.42;4.30;;;;;;;22.98;52.85;97488.59;1674044;84;27382;-92
2022/04/25 09:14:05;;;;;;;5.42;4.22;;;;;;;22.98;53.09;97489.99;1635771;84;32470;-90
2022/04/25 09:16:34;;;;;;;7.28;4.58;;;;;;;22.97;53.24;97498.97;1672633;85;26536;-88
2022/04/25 09:19:01;;;;;;;7.67;4.20;;;;;;;22.96;53.18;97495.20;1626296;86;26456;-88
2022/04/25 09:21:28;;;;;;;8.53;4.60;;;;;;;22.93;53.26;97506.63;1606086;88;27472;-90
2022/04/25 09:23:54;;;;;;;8.25;4.70;;;;;;;22.93;53.39;97518.61;1626453;88;25796;-87
2022/04/25 09:26:27;;;;;;;9.90;4.97;;;;;;;22.91;53.19;97511.25;1626258;86;25694;-85
2022/04/25 09:28:54;;;;;;;7.75;5.00;;;;;;;22.92;53.26;97524.62;1626628;88;25826;-88
2022/04/25 09:31:27;;;;;;;9.50;4.50;;;;;;;22.91;53.30;97532.20;1641717;86;25896;-86
2022/04/25 09:33:54;;;;;;;6.87;4.75;;;;;;;22.92;53.38;97530.20;1653058;86;27691;-85
2022/04/25 09:36:21;;;;;;;7.17;4.55;;;;;;;22.92;53.42;97534.39;1655066;86;26201;-86
2022/04/25 09:38:47;;;;;;;7.90;4.78;;;;;;;22.95;53.36;97536.34;1655341;86;25673;-89
2022/04/25 09:41:16;;;;;;;6.35;4.30;;;;;;;22.99;53.34;97535.66;1655338;86;25758;-84
2022/04/25 09:43:49;;;;;;;6.75;4.97;;;;;;;22.98;53.37;97538.87;1655055;86;25801;-84
2022/04/25 09:46:17;;;;;;;7.25;4.33;;;;;;;22.98;53.37;97542.47;1654641;86;26853;-85
2022/04/25 09:49:04;;;;;;;7.05;4.40;;;;;;;22.99;53.30;97542.64;1655179;86;25797;-87
2022/04/25 09:51:31;;;;;;;7.55;4.60;;;;;;;23.04;53.24;97539.97;1655331;86;25786;-83
2022/04/25 09:53:57;;;;;;;7.08;4.47;;;;;;;23.05;53.17;97537.34;1655244;86;25738;-89
2022/04/25 09:56:31;;;;;;;8.38;4.58;;;;;;;23.06;53.13;97534.76;1655324;86;25766;-89
2022/04/25 09:59:05;;;;;;;6.42;4.55;;;;;;;23.08;53.08;97544.88;1655542;86;27619;-88
2022/04/25 10:01:36;;;;;;;7.15;4.42;;;;;;;23.07;53.02;97537.72;1655337;86;25724;-88
2022/04/25 10:04:31;;;;;;;6.40;4.55;;;;;;;23.09;52.96;97541.48;1698369;84;25803;-89
2022/04/25 10:07:04;;;;;;;7.50;4.50;;;;;;;23.11;52.89;97539.06;1685503;83;25721;-89
2022/04/25 10:09:35;;;;;;;9.48;4.70;;;;;;;23.11;52.84;97537.05;1672827;85;25695;-86
2022/04/25 10:12:06;;;;;;;7.58;4.50;;;;;;;23.12;52.79;97539.23;1627286;88;28129;-88
2022/04/25 10:14:33;;;;;;;6.92;4.47;;;;;;;23.09;52.86;97542.29;1643299;86;25748;-90
2022/04/25 10:17:01;;;;;;;6.60;4.45;;;;;;;23.09;52.91;97540.09;1655629;86;25691;-90
2022/04/25 10:19:29;;;;;;;8.55;4.85;;;;;;;23.12;52.79;97539.23;1655339;86;25801;-89
2022/04/25 10:21:56;;;;;;;7.00;4.75;;;;;;;23.11;52.68;97542.62;1655229;86;25737;-89
2022/04/25 10:24:24;;;;;;;7.08;4.40;;;;;;;23.14;52.58;97544.58;1655542;86;27383;-88
2022/04/25 10:26:53;;;;;;;13.72;4.60;;;;;;;23.15;52.41;97535.59;1629473;86;25694;-85
2022/04/25 10:29:29;;;;;;;7.53;4.30;;;;;;;23.09;52.52;97538.09;1603502;88;25698;-83
2022/04/25 10:31:59;;;;;;;7.45;4.50;;;;;;;23.08;52.57;97530.91;1603033;89;26399;-84
2022/04/25 10:34:47;;;;;;;8.35;4.37;;;;;;;23.10;52.52;97538.87;1616105;86;25654;-85
2022/04/25 10:37:35;;;;;;;5.83;4.25;;;;;;;23.09;52.50;97535.91;1631895;87;27493;-85
2022/04/25 10:40:08;;;;;;;6.37;4.30;;;;;;;23.11;52.46;97534.25;1678121;84;25646;-85
2022/04/25 10:46:01;;;;;;;6.70;4.25;;;;;;;23.11;52.38;97535.64;1601473;89;25726;-86
2022/04/25 10:48:30;;;;;;;7.60;3.98;;;;;;;23.12;52.38;97536.45;1602145;89;25785;-85
2022/04/25 10:51:18;;;;;;;7.28;4.60;;;;;;;23.11;52.34;97539.06;1582819;89;27413;-85
2022/04/25 10:54:02;;;;;;;6.87;4.62;;;;;;;23.10;52.39;97538.87;1602608;89;25766;-85
2022/04/25 10:56:30;;;;;;;6.83;4.50;;;;;;;23.06;52.38;97542.52;1602953;89;25739;-85
2022/04/25 10:59:27;;;;;;;7.92;4.53;;;;;;;23.05;52.42;97545.73;1608545;88;25662;-85
2022/04/25 11:01:56;;;;;;;7.03;4.47;;;;;;;23.06;52.44;97547.33;1609779;89;25504;-85
2022/04/25 11:04:23;;;;;;;6.92;4.53;;;;;;;23.02;52.50;97549.38;1614888;87;25847;-85
2022/04/25 11:07:23;;;;;;;6.45;4.45;;;;;;;23.01;52.44;97556.19;1649966;87;25702;-85
2022/04/25 11:09:51;;;;;;;7.67;4.67;;;;;;;22.99;52.52;97559.41;1679929;85;25451;-85
2022/04/25 11:12:17;;;;;;;9.88;4.70;;;;;;;22.98;52.56;97564.82;1639902;87;25740;-86
2022/04/25 11:14:58;;;;;;;8.73;4.50;;;;;;;22.99;52.64;97562.80;1639953;87;25701;-85
2022/04/25 11:17:26;;;;;;;6.37;4.58;;;;;;;22.97;52.57;97568.04;1639021;87;27438;-84
2022/04/25 11:19:55;;;;;;;8.20;4.95;;;;;;;22.98;52.58;97567.61;1648573;85;25769;-85
2022/04/25 11:22:31;;;;;;;9.00;4.90;;;;;;;22.99;52.47;97578.16;1648564;85;25728;-83
2022/04/25 11:25:29;;;;;;;8.20;4.72;;;;;;;22.97;52.52;97580.61;1671251;85;25765;-86
2022/04/25 11:28:10;;;;;;;8.83;5.25;;;;;;;22.96;52.63;97582.60;1672018;85;25402;-87
2022/04/25 11:30:38;;;;;;;6.03;4.60;;;;;;;22.97;52.55;97600.16;1680139;84;28301;-87
2022/04/25 11:33:08;;;;;;;8.33;4.80;;;;;;;22.97;52.46;97604.36;1639555;86;25990;-85
2022/04/25 11:35:34;;;;;;;7.28;4.58;;;;;;;22.98;52.46;97622.69;1637125;87;25747;-85
2022/04/25 11:38:01;;;;;;;10.98;4.80;;;;;;;22.96;52.48;97625.90;1637677;87;26319;-84
2022/04/25 11:40:28;;;;;;;7.12;4.87;;;;;;;22.95;52.63;97638.30;1646499;85;26023;-84
2022/04/25 11:42:56;;;;;;;7.15;4.58;;;;;;;22.93;52.47;97641.52;1647880;86;27467;-84
2022/04/25 11:45:22;;;;;;;10.08;4.58;;;;;;;22.95;52.43;97653.66;1647998;86;25886;-84
2022/04/25 11:47:49;;;;;;;9.18;4.60;;;;;;;22.96;52.34;97654.44;1648104;86;25709;-85
2022/04/25 11:50:24;;;;;;;7.55;4.45;;;;;;;22.92;52.34;97660.89;1649552;86;25763;-83
2022/04/25 11:52:54;;;;;;;6.80;4.17;;;;;;;22.93;52.30;97658.27;1678088;83;25259;-85
2022/04/25 11:55:33;;;;;;;9.68;4.65;;;;;;;22.90;52.47;97656.33;1679407;85;27322;-83
2022/04/25 11:58:00;;;;;;;7.47;4.43;;;;;;;22.86;52.47;97647.81;1634976;87;25910;-85
2022/04/25 12:00:27;;;;;;;8.25;4.70;;;;;;;22.83;52.37;97648.06;1634257;87;25710;-83
2022/04/25 12:02:53;;;;;;;6.90;4.45;;;;;;;22.83;52.43;97657.03;1651702;86;25659;-83
2022/04/25 12:05:32;;;;;;;7.80;4.50;;;;;;;22.83;52.35;97663.42;1638888;87;25673;-84
2022/04/25 12:16:14;;;;;;;6.35;4.17;;;;;;;22.85;52.14;97675.57;1651542;86;25738;-85
2022/04/25 12:18:51;;;;;;;5.67;3.90;;;;;;;22.86;52.09;97671.55;1638882;87;25687;-84